createdAt,value
2022-10-05T00:04:52.773Z,5.17
2022-10-05T00:10:45.579Z,5.28
2022-10-05T00:16:37.793Z,4.50
2022-10-05T00:22:32.207Z,4.33
2022-10-05T00:28:30.522Z,6.25
2022-10-05T00:34:22.370Z,4.35
2022-10-05T00:40:32.522Z,4.93
2022-10-05T00:46:37.210Z,5.57
2022-10-05T00:52:36.829Z,4.03
2022-10-05T00:58:38.659Z,4.95
2022-10-05T01:04:46.093Z,4.55
2022-10-05T01:10:55.739Z,5.13
2022-10-05T01:16:53.304Z,5.50
2022-10-05T01:22:49.189Z,2.83
2022-10-05T01:29:06.060Z,3.58
2022-10-05T01:35:08.159Z,3.33
2022-10-05T01:41:00.943Z,4.65
2022-10-05T01:46:57.105Z,3.55
2022-10-05T01:52:52.575Z,3.58
2022-10-05T01:59:03.339Z,3.20
2022-10-05T02:05:07.710Z,3.50
2022-10-05T02:11:04.751Z,4.05
2022-10-05T02:16:58.087Z,3.85
2022-10-05T02:22:53.169Z,3.72
2022-10-05T02:28:52.767Z,4.45
2022-10-05T02:34:46.709Z,4.43
2022-10-05T02:40:46.819Z,4.70
2022-10-05T02:46:41.888Z,3.53
2022-10-05T02:52:45.212Z,4.45
2022-10-05T02:58:56.517Z,4.82
2022-10-05T03:04:51.657Z,4.03
2022-10-05T03:10:47.619Z,4.43
2022-10-05T03:16:40.172Z,4.05
2022-10-05T03:22:38.949Z,3.55
2022-10-05T03:29:00.289Z,4.80
2022-10-05T03:35:12.192Z,3.55
2022-10-05T03:41:22.779Z,3.05
2022-10-05T03:47:20.978Z,2.58
2022-10-05T03:53:19.607Z,3.33
2022-10-05T03:59:22.048Z,3.13
2022-10-05T04:05:17.256Z,2.60
2022-10-05T04:11:13.844Z,3.28
2022-10-05T04:17:33.944Z,3.58
2022-10-05T04:23:32.854Z,3.10
2022-10-05T04:29:36.917Z,3.35
2022-10-05T04:35:30.086Z,3.42
2022-10-05T04:41:35.001Z,3.13
2022-10-05T04:47:45.612Z,3.25
2022-10-05T04:53:47.031Z,3.85
2022-10-05T04:59:48.880Z,3.28
2022-10-05T05:06:05.020Z,3.78
2022-10-05T05:12:06.452Z,4.22
2022-10-05T05:18:10.892Z,2.97
2022-10-05T05:30:16.878Z,2.40
2022-10-05T05:36:11.901Z,3.38
2022-10-05T05:42:17.969Z,2.72
2022-10-05T05:48:43.472Z,2.00
2022-10-05T05:54:41.399Z,2.65
2022-10-05T06:00:45.220Z,2.22
2022-10-05T06:12:32.174Z,3.33
2022-10-05T06:18:24.973Z,3.20
2022-10-05T06:24:31.847Z,4.00
2022-10-05T06:30:25.002Z,3.80
2022-10-05T06:42:20.943Z,3.55
2022-10-05T06:48:37.369Z,3.65
2022-10-05T06:54:58.149Z,2.88
2022-10-05T07:00:57.564Z,2.92
2022-10-05T07:06:55.271Z,1.98
2022-10-05T07:13:07.468Z,2.67
2022-10-05T07:19:08.073Z,2.80
2022-10-05T07:25:16.600Z,2.03
2022-10-05T07:31:29.934Z,1.98
2022-10-05T07:37:54.227Z,2.20
2022-10-05T07:44:12.529Z,1.27
2022-10-05T07:50:18.961Z,1.40
2022-10-05T07:56:21.621Z,1.63
2022-10-05T08:02:17.403Z,1.80
2022-10-05T08:08:21.681Z,1.30
2022-10-05T08:14:20.652Z,1.55
2022-10-05T08:20:18.555Z,1.10
2022-10-05T08:26:11.009Z,1.48
2022-10-05T08:32:05.836Z,1.42
2022-10-05T08:37:58.401Z,0.77
2022-10-05T08:44:04.862Z,0.90
2022-10-05T08:50:09.053Z,1.33
2022-10-05T08:56:07.019Z,0.80
2022-10-05T09:01:59.185Z,1.08
2022-10-05T09:07:54.867Z,1.40
2022-10-05T09:13:46.802Z,0.95
2022-10-05T09:25:55.051Z,1.02
2022-10-05T09:31:58.151Z,1.00
2022-10-05T09:37:53.702Z,1.13
2022-10-05T09:43:55.062Z,1.05
2022-10-05T09:50:05.261Z,1.27
2022-10-05T09:56:06.245Z,1.20
2022-10-05T10:02:10.081Z,1.08
2022-10-05T10:08:13.570Z,1.33
2022-10-05T10:14:06.372Z,0.90
2022-10-05T10:20:00.853Z,0.90
2022-10-05T10:26:05.082Z,0.70
2022-10-05T10:32:03.373Z,0.98
2022-10-05T10:38:13.832Z,1.13
2022-10-05T10:44:10.651Z,1.00
2022-10-05T10:50:10.112Z,0.77
2022-10-05T10:56:20.974Z,1.00
2022-10-05T11:02:22.561Z,1.15
2022-10-05T11:08:15.982Z,1.25
2022-10-05T11:14:08.540Z,0.60
2022-10-05T11:20:12.441Z,0.90
2022-10-05T11:26:16.229Z,1.20
2022-10-05T11:32:20.552Z,0.77
2022-10-05T11:38:27.552Z,0.93
2022-10-05T11:44:43.312Z,0.77
2022-10-05T11:50:54.079Z,1.05
2022-10-05T11:56:49.512Z,0.80
2022-10-05T12:02:53.678Z,0.75
2022-10-05T12:08:52.366Z,1.10
2022-10-05T12:14:59.379Z,0.70
2022-10-05T12:21:10.074Z,0.82
2022-10-05T12:27:13.241Z,0.88
2022-10-05T12:33:08.340Z,0.90
2022-10-05T12:39:01.761Z,0.40
2022-10-05T12:45:04.070Z,0.80
2022-10-05T12:51:11.822Z,0.68
2022-10-05T12:57:17.326Z,0.93
2022-10-05T13:03:23.492Z,0.80
2022-10-05T13:09:21.642Z,0.90
2022-10-05T13:15:13.581Z,0.90
2022-10-05T13:21:17.842Z,0.90
2022-10-05T13:27:18.150Z,0.90
2022-10-05T13:33:18.294Z,0.65
2022-10-05T13:39:27.367Z,0.52
2022-10-05T13:45:30.103Z,0.85
2022-10-05T13:51:29.722Z,0.40
2022-10-05T13:57:45.382Z,0.50
2022-10-05T14:03:38.584Z,0.88
2022-10-05T14:09:34.172Z,0.93
2022-10-05T14:15:29.703Z,0.90
2022-10-05T14:21:23.514Z,0.93
2022-10-05T14:27:24.632Z,1.42
2022-10-05T14:33:17.318Z,1.27
2022-10-05T14:39:13.359Z,0.90
2022-10-05T14:45:14.816Z,1.13
2022-10-05T14:51:10.838Z,0.90
2022-10-05T14:57:17.521Z,1.10
2022-10-05T15:03:21.061Z,1.00
2022-10-05T15:09:20.100Z,1.30
2022-10-05T15:15:37.301Z,1.02
2022-10-05T15:21:36.070Z,1.00
2022-10-05T15:27:38.060Z,1.13
2022-10-05T15:33:47.072Z,1.48
2022-10-05T15:39:43.650Z,1.38
2022-10-05T15:45:37.947Z,1.20
2022-10-05T15:51:51.722Z,1.40
2022-10-05T15:57:44.092Z,1.35
2022-10-05T16:03:45.153Z,1.45
2022-10-05T16:09:56.503Z,2.03
2022-10-05T16:15:55.896Z,2.38
2022-10-05T16:21:53.174Z,1.00
2022-10-05T16:28:05.885Z,1.50
2022-10-05T16:34:22.411Z,1.88
2022-10-05T16:40:19.591Z,1.75
2022-10-05T16:46:21.830Z,2.75
2022-10-05T16:52:19.173Z,1.70
2022-10-05T16:58:14.373Z,2.42
2022-10-05T17:04:06.391Z,2.28
2022-10-05T17:10:01.141Z,2.40
2022-10-05T17:16:13.836Z,2.78
2022-10-05T17:22:12.283Z,3.47
2022-10-05T17:28:16.639Z,4.30
2022-10-05T17:34:26.522Z,3.22
2022-10-05T17:40:31.493Z,3.50
2022-10-05T17:46:46.181Z,3.78
2022-10-05T17:53:01.847Z,3.55
2022-10-05T17:58:57.126Z,4.65
2022-10-05T18:05:12.342Z,5.07
2022-10-05T18:11:17.418Z,4.85
2022-10-05T18:17:14.032Z,5.00
2022-10-05T18:23:08.672Z,3.95
2022-10-05T18:29:15.589Z,4.47
2022-10-05T18:35:28.729Z,3.95
2022-10-05T18:41:32.159Z,3.95
2022-10-05T18:47:31.869Z,3.90
2022-10-05T18:53:28.031Z,4.88
2022-10-05T18:59:39.211Z,4.07
2022-10-05T19:05:49.172Z,4.00
2022-10-05T19:11:51.491Z,4.78
2022-10-05T19:17:48.713Z,5.88
2022-10-05T19:23:47.914Z,3.70
2022-10-05T19:29:43.641Z,3.90
2022-10-05T19:35:40.673Z,4.05
2022-10-05T19:41:51.362Z,3.05
2022-10-05T19:48:05.624Z,3.47
2022-10-05T19:54:03.302Z,3.25
2022-10-05T19:59:56.919Z,4.50
2022-10-05T20:05:50.570Z,4.07
2022-10-05T20:11:49.396Z,3.85
2022-10-05T20:18:01.102Z,3.55
2022-10-05T20:24:06.761Z,4.47
2022-10-05T20:29:58.790Z,4.25
2022-10-05T20:35:54.328Z,4.07
2022-10-05T20:41:47.393Z,4.13
2022-10-05T20:47:40.659Z,3.85
2022-10-05T20:53:33.813Z,4.28
2022-10-05T20:59:26.153Z,4.27
2022-10-05T21:05:20.724Z,3.90
2022-10-05T21:11:13.825Z,3.22
2022-10-05T21:17:06.920Z,3.78
2022-10-05T21:22:59.151Z,4.85
2022-10-05T21:28:50.721Z,5.18
2022-10-05T21:34:43.094Z,4.47
2022-10-05T21:40:35.103Z,4.93
2022-10-05T21:46:27.146Z,3.60
2022-10-05T21:52:19.042Z,4.15
2022-10-05T21:58:12.180Z,4.63
2022-10-05T22:04:04.551Z,4.63
2022-10-05T22:15:50.460Z,4.80
2022-10-05T22:21:44.156Z,4.03
2022-10-05T22:27:36.441Z,4.82
2022-10-05T22:33:30.318Z,4.00
2022-10-05T22:39:22.253Z,2.90
2022-10-05T22:45:14.560Z,3.03
2022-10-05T22:51:08.541Z,3.17
2022-10-05T22:57:01.447Z,2.35
2022-10-05T23:02:53.240Z,2.67
2022-10-05T23:08:46.373Z,2.67
2022-10-05T23:14:38.243Z,2.70
2022-10-05T23:20:30.391Z,2.90
2022-10-05T23:26:23.622Z,3.05
2022-10-05T23:32:17.271Z,3.22
2022-10-05T23:38:09.352Z,3.17
2022-10-05T23:44:01.032Z,3.10
2022-10-05T23:49:53.471Z,2.83
2022-10-05T23:55:45.663Z,2.70
